Time;durP1;ratioP1;P1;durP2;ratioP2;P2;SDS_P1;SDS_P2;PMS_P1;PMS_P2;Temp;Humidity;BMP_temperature;BMP_pressure;BME280_temperature;BME280_humidity;BME280_pressure;Samples;Min_cycle;Max_cycle;Signal;HPM_P1;HPM_P2
2022/03/01 00:02:20;;;;;;;24.10;12.10;;;;;;;-2.38;77.15;100241.83;105989;1277;138447;-70
2022/03/01 00:04:46;;;;;;;26.60;11.10;;;;;;;-2.41;76.73;100242.20;106108;1277;24321;-70
2022/03/01 00:07:13;;;;;;;24.90;11.10;;;;;;;-2.44;76.86;100236.42;105902;1278;22566;-70
2022/03/01 00:09:39;;;;;;;24.40;11.70;;;;;;;-2.45;76.75;100239.73;105749;1278;137817;-70
2022/03/01 00:12:06;;;;;;;22.20;11.50;;;;;;;-2.49;76.86;100239.59;106019;1277;23465;-70
2022/03/01 00:14:47;;;;;;;23.20;11.40;;;;;;;-2.50;77.06;100238.79;105920;1277;138713;-70
2022/03/01 00:17:28;;;;;;;23.50;9.90;;;;;;;-2.53;76.69;100232.31;105992;1277;22627;-70
2022/03/01 00:19:54;;;;;;;26.80;11.60;;;;;;;-2.50;76.99;100234.73;105961;1277;25317;-70
2022/03/01 00:22:20;;;;;;;27.70;11.70;;;;;;;-2.50;76.82;100236.13;105737;1277;137608;-70
2022/03/01 00:24:47;;;;;;;21.20;10.50;;;;;;;-2.49;77.27;100236.93;105981;1277;22547;-70
2022/03/01 00:27:13;;;;;;;23.70;11.20;;;;;;;-2.48;77.05;100236.73;105781;1277;137837;-70
2022/03/01 00:29:39;;;;;;;25.70;10.80;;;;;;;-2.50;77.27;100234.50;105974;1277;22740;-70
2022/03/01 00:32:06;;;;;;;25.10;12.00;;;;;;;-2.54;77.08;100231.44;106060;1277;138120;-70
2022/03/01 00:34:32;;;;;;;24.50;11.30;;;;;;;-2.55;77.05;100238.80;105862;1277;25349;-70
2022/03/01 00:36:58;;;;;;;26.70;10.70;;;;;;;-2.55;77.06;100237.60;105879;1277;22800;-70
2022/03/01 00:39:25;;;;;;;20.40;10.80;;;;;;;-2.56;76.97;100237.29;105919;1277;138106;-70
2022/03/01 00:41:51;;;;;;;24.90;10.70;;;;;;;-2.57;76.79;100235.64;106012;1277;22557;-70
2022/03/01 00:44:17;;;;;;;24.70;10.90;;;;;;;-2.59;77.15;100232.96;105934;1277;138500;-69
2022/03/01 00:46:43;;;;;;;23.30;11.90;;;;;;;-2.62;76.70;100236.02;105985;1277;25512;-69
2022/03/01 00:49:10;;;;;;;27.70;11.30;;;;;;;-2.67;76.88;100234.04;106060;1277;22857;-70
2022/03/01 00:51:36;;;;;;;23.90;10.90;;;;;;;-2.71;77.19;100237.23;106247;1277;138436;-70
2022/03/01 00:54:02;;;;;;;23.30;11.90;;;;;;;-2.75;76.96;100237.50;105974;1277;25325;-70
2022/03/01 00:56:30;;;;;;;18.90;10.70;;;;;;;-2.78;77.33;100234.36;105822;1280;138235;-70
2022/03/01 00:58:58;;;;;;;24.20;11.10;;;;;;;-2.78;76.88;100233.14;105821;1278;22566;-70
2022/03/01 01:01:24;;;;;;;21.00;10.80;;;;;;;-2.78;76.89;100234.16;105927;1277;22571;-70
2022/03/01 01:03:50;;;;;;;22.50;11.10;;;;;;;-2.77;77.12;100238.91;106007;1277;137780;-70
2022/03/01 01:06:17;;;;;;;19.60;10.10;;;;;;;-2.79;77.24;100239.08;105914;1278;22726;-69
2022/03/01 01:08:43;;;;;;;25.50;10.90;;;;;;;-2.81;77.30;100239.06;105695;1280;138002;-69
2022/03/01 01:11:10;;;;;;;23.00;10.80;;;;;;;-2.85;77.06;100242.66;105966;1277;24269;-69
2022/03/01 01:13:36;;;;;;;23.50;10.50;;;;;;;-2.87;77.13;100241.95;106041;1277;25715;-69
2022/03/01 01:16:03;;;;;;;18.70;9.90;;;;;;;-2.91;77.22;100241.33;105800;1277;137724;-69
2022/03/01 01:18:30;;;;;;;23.50;11.60;;;;;;;-2.95;77.17;100241.80;106508;1277;22718;-70
2022/03/01 01:20:56;;;;;;;24.40;11.40;;;;;;;-2.97;77.62;100238.93;106106;1278;138611;-69
2022/03/01 01:23:22;;;;;;;23.80;11.10;;;;;;;-2.98;77.30;100242.76;106155;1277;22713;-69
2022/03/01 01:25:49;;;;;;;25.60;12.30;;;;;;;-2.96;77.54;100243.30;105994;1277;22546;-69
2022/03/01 01:28:16;;;;;;;25.40;11.00;;;;;;;-2.95;77.65;100245.55;105963;1277;137662;-70
2022/03/01 01:30:42;;;;;;;23.60;10.30;;;;;;;-2.94;77.64;100246.88;105889;1277;25982;-69
2022/03/01 01:33:08;;;;;;;25.80;12.10;;;;;;;-2.93;77.29;100251.98;106088;1277;138169;-69
2022/03/01 01:35:35;;;;;;;23.90;12.70;;;;;;;-2.95;77.42;100253.89;105982;1277;23035;-69
2022/03/01 01:38:03;;;;;;;29.60;13.20;;;;;;;-2.97;77.47;100253.56;105955;1277;138107;-69
2022/03/01 01:40:32;;;;;;;19.80;11.30;;;;;;;-2.99;77.46;100252.27;106141;1277;25341;-69
2022/03/01 01:43:00;;;;;;;22.30;12.50;;;;;;;-3.02;77.40;100253.19;106137;1277;25363;-69
2022/03/01 01:45:27;;;;;;;28.10;12.20;;;;;;;-3.04;77.47;100248.88;105907;1277;138771;-69
2022/03/01 01:47:55;;;;;;;26.40;12.00;;;;;;;-3.05;77.57;100246.65;105811;1277;22704;-69
2022/03/01 01:50:23;;;;;;;26.80;12.20;;;;;;;-3.06;77.23;100244.63;105937;1277;137963;-72
2022/03/01 01:52:51;;;;;;;21.50;11.80;;;;;;;-3.09;77.54;100240.36;106046;1277;24221;-72
2022/03/01 01:55:19;;;;;;;22.90;12.00;;;;;;;-3.11;77.47;100240.36;106024;1277;22560;-72
2022/03/01 01:57:46;;;;;;;25.60;12.60;;;;;;;-3.14;77.21;100234.69;105878;1277;138135;-72
2022/03/01 02:00:14;;;;;;;24.10;11.70;;;;;;;-3.17;78.01;100235.48;106002;1277;22563;-72
2022/03/01 02:02:41;;;;;;;28.60;12.30;;;;;;;-3.20;77.61;100234.30;105921;1277;138333;-72
2022/03/01 02:05:08;;;;;;;25.40;12.80;;;;;;;-3.23;77.73;100234.52;106155;1277;22636;-72
2022/03/01 02:07:35;;;;;;;23.20;11.00;;;;;;;-3.24;77.68;100228.34;106012;1277;25489;-72
2022/03/01 02:10:03;;;;;;;26.50;12.30;;;;;;;-3.24;78.16;100227.48;105920;1277;138294;-69
2022/03/01 02:12:30;;;;;;;30.30;13.80;;;;;;;-3.23;78.01;100229.36;105915;1277;25352;-69
2022/03/01 02:14:56;;;;;;;24.60;11.80;;;;;;;-3.21;77.99;100230.13;105790;1277;137738;-69
2022/03/01 02:17:24;;;;;;;26.10;11.80;;;;;;;-3.22;77.93;100228.90;106013;1277;24418;-69
2022/03/01 02:19:51;;;;;;;26.50;12.00;;;;;;;-3.23;77.77;100229.15;105946;1277;22566;-72
2022/03/01 02:22:19;;;;;;;28.60;13.30;;;;;;;-3.26;77.77;100231.86;105897;1277;137872;-71
2022/03/01 02:24:45;;;;;;;24.30;12.00;;;;;;;-3.29;77.67;100231.73;105977;1277;23954;-71
2022/03/01 02:27:13;;;;;;;29.80;12.50;;;;;;;-3.32;77.90;100237.13;105805;1277;138222;-70
2022/03/01 02:29:40;;;;;;;26.30;12.00;;;;;;;-3.34;77.50;100239.17;105872;1277;22571;-71
2022/03/01 02:32:08;;;;;;;29.60;11.90;;;;;;;-3.36;77.30;100236.48;105876;1276;137828;-72
2022/03/01 02:34:34;;;;;;;24.90;11.40;;;;;;;-3.37;77.80;100237.13;105943;1277;22703;-70
2022/03/01 02:37:02;;;;;;;29.90;12.00;;;;;;;-3.37;78.36;100231.45;105870;1277;22552;-70
2022/03/01 02:39:28;;;;;;;28.10;12.50;;;;;;;-3.37;78.24;100234.79;105773;1277;138348;-70
2022/03/01 02:41:55;;;;;;;28.80;12.70;;;;;;;-3.36;78.49;100232.23;105902;1277;26519;-72
2022/03/01 02:44:21;;;;;;;23.50;11.90;;;;;;;-3.36;78.67;100233.46;105734;1277;138700;-72
2022/03/01 02:46:47;;;;;;;24.80;12.20;;;;;;;-3.34;78.05;100233.52;106170;1277;25301;-71
2022/03/01 02:49:14;;;;;;;26.80;12.40;;;;;;;-3.34;78.17;100233.85;106080;1277;22576;-72
2022/03/01 02:51:40;;;;;;;29.00;13.00;;;;;;;-3.38;78.11;100237.73;105892;1277;137694;-71
2022/03/01 02:54:07;;;;;;;27.00;13.00;;;;;;;-3.43;78.09;100240.02;105821;1277;24388;-70
2022/03/01 02:56:34;;;;;;;26.70;13.20;;;;;;;-3.48;78.47;100236.98;105880;1277;138850;-69
2022/03/01 02:59:00;;;;;;;29.30;13.50;;;;;;;-3.49;78.40;100234.98;105713;1277;22563;-69
2022/03/01 03:01:28;;;;;;;30.60;14.60;;;;;;;-3.51;78.90;100232.42;105937;1277;25413;-69
2022/03/01 03:03:56;;;;;;;31.80;14.10;;;;;;;-3.51;79.01;100230.84;105697;1277;138479;-69
2022/03/01 03:06:23;;;;;;;31.30;13.70;;;;;;;-3.50;78.89;100229.48;105919;1277;24224;-69
2022/03/01 03:08:49;;;;;;;24.80;13.10;;;;;;;-3.47;78.80;100228.22;105815;1277;138572;-69
2022/03/01 03:11:15;;;;;;;27.10;13.40;;;;;;;-3.45;79.17;100224.51;106052;1277;22570;-72
2022/03/01 03:13:42;;;;;;;28.50;14.10;;;;;;;-3.43;78.94;100229.58;105907;1277;25470;-69
2022/03/01 03:16:08;;;;;;;30.60;13.30;;;;;;;-3.43;78.96;100227.25;105884;1277;137843;-69
2022/03/01 03:18:35;;;;;;;25.90;12.80;;;;;;;-3.43;79.03;100225.63;106048;1277;24219;-69
2022/03/01 03:21:01;;;;;;;29.00;14.30;;;;;;;-3.43;78.87;100224.73;105892;1277;137814;-69
2022/03/01 03:23:27;;;;;;;30.80;13.80;;;;;;;-3.44;79.04;100223.54;105923;1277;24374;-72
2022/03/01 03:25:54;;;;;;;31.00;13.20;;;;;;;-3.43;78.68;100222.23;105990;1277;22693;-69
2022/03/01 03:28:21;;;;;;;31.80;14.20;;;;;;;-3.42;78.81;100220.75;105759;1277;137725;-70
2022/03/01 03:30:47;;;;;;;26.40;12.40;;;;;;;-3.42;79.09;100217.38;106124;1277;25792;-70
2022/03/01 03:33:13;;;;;;;26.00;14.00;;;;;;;-3.41;78.69;100218.79;105918;1277;137830;-70
2022/03/01 03:35:39;;;;;;;25.30;13.80;;;;;;;-3.42;78.52;100214.05;105974;1277;25258;-70
2022/03/01 03:38:06;;;;;;;28.60;14.00;;;;;;;-3.44;78.75;100208.52;105922;1277;138010;-70
2022/03/01 03:40:32;;;;;;;29.80;12.70;;;;;;;-3.47;78.84;100206.77;105895;1277;22546;-70
2022/03/01 03:42:58;;;;;;;25.90;13.20;;;;;;;-3.49;78.79;100201.41;106043;1277;26628;-70
2022/03/01 03:45:24;;;;;;;24.00;12.30;;;;;;;-3.51;78.45;100203.45;106014;1277;138868;-70
2022/03/01 03:47:51;;;;;;;26.20;12.70;;;;;;;-3.51;78.69;100203.15;105719;1277;22583;-70
2022/03/01 03:50:17;;;;;;;27.40;12.90;;;;;;;-3.52;78.67;100204.61;105862;1277;138904;-70
2022/03/01 03:52:43;;;;;;;33.50;13.10;;;;;;;-3.54;78.49;100202.85;105829;1277;25365;-70
2022/03/01 03:55:11;;;;;;;26.00;13.30;;;;;;;-3.58;78.89;100201.16;105887;1277;25412;-70
2022/03/01 03:57:38;;;;;;;25.50;12.30;;;;;;;-3.61;79.06;100199.42;105803;1277;137930;-70
2022/03/01 04:00:08;;;;;;;23.70;10.90;;;;;;;-3.65;79.31;100200.25;105913;1277;23212;-70
2022/03/01 04:02:34;;;;;;;29.70;12.70;;;;;;;-3.69;79.01;100196.46;105893;1276;138109;-70
2022/03/01 04:05:00;;;;;;;23.10;12.30;;;;;;;-3.71;79.02;100194.10;105882;1277;24517;-70
2022/03/01 04:07:29;;;;;;;29.30;11.70;;;;;;;-3.70;79.39;100192.06;105864;1277;24461;-70
2022/03/01 04:09:56;;;;;;;26.70;12.50;;;;;;;-3.69;79.45;100192.55;105901;1277;138144;-69
2022/03/01 04:12:22;;;;;;;28.90;13.70;;;;;;;-3.68;79.54;100197.24;106028;1277;25364;-70
2022/03/01 04:14:48;;;;;;;27.10;12.80;;;;;;;-3.67;79.48;100192.41;105783;1277;137790;-70
2022/03/01 04:17:14;;;;;;;25.70;13.00;;;;;;;-3.68;79.35;100192.81;105951;1277;22662;-70
2022/03/01 04:19:41;;;;;;;27.80;13.50;;;;;;;-3.69;79.25;100188.96;105886;1277;22787;-70
2022/03/01 04:22:07;;;;;;;36.90;15.40;;;;;;;-3.69;78.97;100188.84;105882;1277;138100;-70
2022/03/01 04:24:33;;;;;;;26.10;13.90;;;;;;;-3.73;79.31;100184.65;106011;1277;22626;-70
2022/03/01 04:26:59;;;;;;;23.80;12.30;;;;;;;-3.74;79.20;100187.91;105887;1277;138368;-69
2022/03/01 04:29:26;;;;;;;23.50;12.40;;;;;;;-3.73;79.41;100183.10;106010;1277;24289;-69
2022/03/01 04:31:52;;;;;;;31.10;12.90;;;;;;;-3.74;79.24;100181.52;106064;1277;22570;-69
2022/03/01 04:34:18;;;;;;;23.50;11.00;;;;;;;-3.72;79.39;100182.45;105916;1277;137690;-69
2022/03/01 04:36:45;;;;;;;27.10;13.10;;;;;;;-3.73;79.33;100177.17;105815;1277;24474;-69
2022/03/01 04:39:11;;;;;;;31.70;13.10;;;;;;;-3.77;79.23;100179.23;105602;1277;137808;-69
2022/03/01 04:41:38;;;;;;;32.20;14.30;;;;;;;-3.80;79.41;100181.45;105844;1280;23680;-69
2022/03/01 04:44:05;;;;;;;32.10;14.60;;;;;;;-3.83;79.34;100178.60;105902;1277;138299;-69
2022/03/01 04:46:33;;;;;;;27.80;14.10;;;;;;;-3.87;79.32;100174.88;106055;1277;23754;-70
2022/03/01 04:48:59;;;;;;;32.40;13.10;;;;;;;-3.88;79.55;100170.64;105993;1277;23982;-70
2022/03/01 04:51:25;;;;;;;29.70;13.60;;;;;;;-3.88;79.58;100165.69;105763;1277;138032;-70
2022/03/01 04:53:52;;;;;;;27.60;13.80;;;;;;;-3.89;79.31;100167.37;105992;1277;23729;-70
2022/03/01 04:56:19;;;;;;;32.10;13.60;;;;;;;-3.91;79.48;100161.63;105878;1280;138184;-70
2022/03/01 04:58:46;;;;;;;27.50;13.30;;;;;;;-3.91;79.30;100162.02;106036;1277;25378;-70
2022/03/01 05:01:12;;;;;;;29.70;12.70;;;;;;;-3.94;79.12;100165.07;105880;1277;23947;-70
2022/03/01 05:03:39;;;;;;;23.30;11.50;;;;;;;-3.95;79.11;100166.17;105775;1278;138203;-70
2022/03/01 05:06:05;;;;;;;26.60;12.50;;;;;;;-3.98;78.96;100167.83;105837;1277;22609;-70
2022/03/01 05:08:31;;;;;;;27.80;11.90;;;;;;;-4.03;79.11;100166.89;105917;1277;139533;-70
2022/03/01 05:10:58;;;;;;;27.40;12.40;;;;;;;-4.03;79.30;100163.39;106073;1277;23879;-70
2022/03/01 05:13:25;;;;;;;23.90;10.90;;;;;;;-4.04;79.32;100163.98;106011;1277;24224;-70
2022/03/01 05:15:52;;;;;;;24.00;12.90;;;;;;;-4.05;79.69;100161.56;105928;1277;137877;-70
2022/03/01 05:18:18;;;;;;;28.20;12.90;;;;;;;-4.04;79.91;100164.66;105844;1277;22701;-70
2022/03/01 05:20:45;;;;;;;28.30;13.10;;;;;;;-4.03;80.20;100163.17;105769;1277;137653;-70
2022/03/01 05:23:11;;;;;;;40.80;14.00;;;;;;;-4.02;79.73;100160.84;105756;1277;24437;-70
2022/03/01 05:25:38;;;;;;;27.90;15.70;;;;;;;-4.03;79.70;100160.92;105940;1277;22829;-70
2022/03/01 05:28:04;;;;;;;33.20;15.80;;;;;;;-4.02;79.83;100161.55;105837;1277;139634;-70
2022/03/01 05:30:31;;;;;;;34.70;15.50;;;;;;;-4.01;79.93;100160.05;105830;1277;25351;-70
2022/03/01 05:32:57;;;;;;;38.80;16.80;;;;;;;-3.98;80.18;100161.66;105699;1277;138419;-70
2022/03/01 05:35:27;;;;;;;37.00;16.60;;;;;;;-3.98;79.41;100163.59;105943;1277;22570;-70
2022/03/01 05:37:54;;;;;;;34.00;14.70;;;;;;;-3.98;79.61;100167.98;105605;1278;22858;-70
2022/03/01 05:40:23;;;;;;;31.80;14.20;;;;;;;-3.99;80.02;100173.60;105669;1277;137631;-70
2022/03/01 05:42:49;;;;;;;33.00;13.60;;;;;;;-3.99;79.98;100174.13;106014;1277;24259;-70
2022/03/01 05:45:16;;;;;;;25.80;13.00;;;;;;;-4.00;80.41;100174.34;105567;1277;139150;-70
2022/03/01 05:47:43;;;;;;;30.50;14.50;;;;;;;-3.97;80.12;100172.04;105881;1277;22551;-70
2022/03/01 05:50:11;;;;;;;28.10;11.90;;;;;;;-3.95;80.03;100169.73;105494;1277;139034;-70
2022/03/01 05:52:37;;;;;;;27.40;13.00;;;;;;;-3.90;79.90;100169.02;105726;1277;22581;-70
2022/03/01 05:55:08;;;;;;;36.90;16.60;;;;;;;-3.87;80.49;100171.11;106058;1277;24077;-70
2022/03/01 05:57:36;;;;;;;34.40;15.20;;;;;;;-3.82;80.26;100167.75;105994;1277;138028;-70
2022/03/01 06:00:06;;;;;;;30.60;15.40;;;;;;;-3.80;80.36;100172.73;105978;1277;22591;-70
2022/03/01 06:02:42;;;;;;;37.00;16.50;;;;;;;-3.77;80.17;100174.35;105893;1277;137936;-70
2022/03/01 06:05:09;;;;;;;34.90;16.10;;;;;;;-3.76;80.09;100174.27;106056;1277;22723;-70
2022/03/01 06:07:36;;;;;;;33.10;16.70;;;;;;;-3.71;80.02;100176.20;106078;1277;22568;-70
2022/03/01 06:10:02;;;;;;;31.80;15.30;;;;;;;-3.66;79.81;100183.98;105961;1280;138554;-70
2022/03/01 06:12:28;;;;;;;32.50;16.30;;;;;;;-3.59;79.92;100180.50;106236;1280;22718;-70
2022/03/01 06:14:55;;;;;;;29.60;16.50;;;;;;;-3.53;79.91;100187.13;105686;1281;137918;-70
2022/03/01 06:17:21;;;;;;;29.50;14.50;;;;;;;-3.48;79.54;100186.94;105897;1277;22609;-70
2022/03/01 06:19:47;;;;;;;29.80;15.80;;;;;;;-3.42;79.55;100182.41;106168;1277;22568;-70
2022/03/01 06:22:14;;;;;;;30.40;15.70;;;;;;;-3.39;79.39;100176.70;106125;1277;137795;-70
2022/03/01 06:24:42;;;;;;;30.40;14.60;;;;;;;-3.37;79.13;100183.60;106090;1277;22717;-70
2022/03/01 06:27:09;;;;;;;29.70;13.80;;;;;;;-3.34;78.91;100181.52;106284;1277;138286;-70
2022/03/01 06:29:36;;;;;;;30.30;14.00;;;;;;;-3.33;79.05;100189.58;106108;1277;25315;-70
2022/03/01 06:32:05;;;;;;;26.60;13.70;;;;;;;-3.31;78.89;100193.54;105980;1280;138571;-70
2022/03/01 06:34:32;;;;;;;28.60;13.10;;;;;;;-3.27;78.99;100195.55;106148;1277;25348;-70
2022/03/01 06:36:59;;;;;;;37.40;14.30;;;;;;;-3.22;78.87;100197.15;106064;1277;23461;-70
2022/03/01 06:39:26;;;;;;;33.40;14.90;;;;;;;-3.16;78.83;100193.11;106678;1277;137806;-70
2022/03/01 06:41:52;;;;;;;33.90;14.50;;;;;;;-3.11;78.79;100195.94;106317;1277;24471;-70
2022/03/01 06:44:19;;;;;;;30.80;13.70;;;;;;;-3.04;78.71;100195.61;106168;1277;138813;-70
2022/03/01 06:46:45;;;;;;;28.00;13.00;;;;;;;-2.99;78.48;100194.36;106648;1277;22564;-70
2022/03/01 06:49:11;;;;;;;24.90;13.00;;;;;;;-2.96;78.67;100196.23;106739;1277;22739;-70
2022/03/01 06:51:38;;;;;;;30.30;14.10;;;;;;;-2.92;78.48;100195.98;106217;1277;138186;-70
2022/03/01 06:54:04;;;;;;;28.90;14.20;;;;;;;-2.88;78.62;100199.02;106251;1277;24385;-70
2022/03/01 06:56:30;;;;;;;26.10;13.30;;;;;;;-2.80;78.73;100199.88;106346;1276;139395;-70
2022/03/01 06:58:57;;;;;;;32.30;13.60;;;;;;;-2.74;78.36;100202.45;105821;1277;22631;-72
2022/03/01 07:01:23;;;;;;;26.70;12.60;;;;;;;-2.68;78.20;100204.96;105904;1277;22635;-70
2022/03/01 07:04:04;;;;;;;24.50;10.80;;;;;;;-2.60;78.23;100204.89;106032;1277;138238;-72
2022/03/01 07:06:30;;;;;;;29.30;13.80;;;;;;;-2.53;78.17;100206.31;106017;1277;25335;-70
2022/03/01 07:08:56;;;;;;;29.00;12.00;;;;;;;-2.47;78.02;100207.27;105918;1277;137926;-72
2022/03/01 07:11:23;;;;;;;26.30;12.30;;;;;;;-2.40;77.83;100206.08;105845;1278;22560;-70
2022/03/01 07:13:50;;;;;;;23.80;11.50;;;;;;;-2.34;77.52;100201.86;106637;1277;24224;-70
2022/03/01 07:16:17;;;;;;;22.90;11.30;;;;;;;-2.29;77.14;100201.94;106147;1277;137713;-70
2022/03/01 07:18:43;;;;;;;22.10;11.10;;;;;;;-2.23;76.99;100202.21;106210;1277;22564;-70
2022/03/01 07:21:10;;;;;;;21.20;10.50;;;;;;;-2.19;76.85;100200.66;106129;1277;137723;-70
2022/03/01 07:23:37;;;;;;;20.40;10.50;;;;;;;-2.13;76.89;100201.94;106152;1277;22570;-70
2022/03/01 07:26:04;;;;;;;27.60;10.10;;;;;;;-2.04;76.82;100198.14;106010;1277;139085;-70
2022/03/01 07:28:31;;;;;;;22.80;10.60;;;;;;;-1.95;76.92;100195.02;106123;1277;22729;-70
2022/03/01 07:30:58;;;;;;;25.30;11.50;;;;;;;-1.85;76.43;100196.38;106624;1277;23150;-70
2022/03/01 07:33:24;;;;;;;26.60;11.50;;;;;;;-1.75;76.36;100194.56;106948;1277;138105;-70
2022/03/01 07:35:50;;;;;;;26.50;12.40;;;;;;;-1.66;75.90;100194.20;106224;1277;24294;-70
2022/03/01 07:38:17;;;;;;;25.10;11.80;;;;;;;-1.60;75.78;100194.18;105912;1277;138040;-70
2022/03/01 07:40:43;;;;;;;21.60;11.30;;;;;;;-1.51;75.95;100198.86;106221;1277;30520;-70
2022/03/01 07:43:10;;;;;;;30.20;11.70;;;;;;;-1.45;75.49;100195.53;105962;1277;24297;-70
2022/03/01 07:45:37;;;;;;;21.40;10.10;;;;;;;-1.39;75.47;100191.64;105998;1277;137736;-70
2022/03/01 07:48:03;;;;;;;25.50;10.30;;;;;;;-1.34;75.08;100190.48;106005;1277;22547;-71
2022/03/01 07:50:31;;;;;;;27.50;12.30;;;;;;;-1.29;74.85;100188.88;106006;1277;138577;-70
2022/03/01 07:52:57;;;;;;;20.10;10.00;;;;;;;-1.23;74.83;100184.27;106608;1277;22577;-70
2022/03/01 07:55:24;;;;;;;23.40;10.40;;;;;;;-1.19;74.39;100177.71;106317;1277;22556;-72
2022/03/01 07:57:51;;;;;;;25.30;11.10;;;;;;;-1.14;74.52;100176.58;106178;1277;138330;-72
2022/03/01 08:00:19;;;;;;;24.40;12.00;;;;;;;-1.10;73.90;100173.77;106550;1277;22688;-70
2022/03/01 08:02:45;;;;;;;21.00;11.10;;;;;;;-1.04;73.99;100174.52;105997;1277;139229;-70
2022/03/01 08:05:11;;;;;;;20.90;10.10;;;;;;;-0.97;73.99;100174.59;105951;1277;24302;-72
2022/03/01 08:07:38;;;;;;;21.40;9.50;;;;;;;-0.88;73.80;100178.70;105954;1278;25496;-70
2022/03/01 08:10:05;;;;;;;25.90;11.50;;;;;;;-0.80;73.53;100175.91;106361;1277;137637;-70
2022/03/01 08:12:31;;;;;;;25.20;10.50;;;;;;;-0.73;72.93;100172.27;106086;1277;24260;-72
2022/03/01 08:14:57;;;;;;;25.90;10.90;;;;;;;-0.67;72.99;100168.21;105960;1277;138772;-70
2022/03/01 08:17:53;;;;;;;23.70;11.70;;;;;;;-0.59;72.98;100162.34;105967;1277;25510;-70
2022/03/01 08:20:20;;;;;;;19.50;9.90;;;;;;;-0.51;72.77;100164.02;106009;1277;138051;-70
2022/03/01 08:22:47;;;;;;;17.30;8.00;;;;;;;-0.46;72.07;100166.58;106211;1277;22563;-70
2022/03/01 08:25:15;;;;;;;18.20;8.50;;;;;;;-0.42;71.58;100164.44;106164;1277;22560;-70
2022/03/01 08:27:42;;;;;;;20.90;9.60;;;;;;;-0.36;71.99;100160.36;105889;1277;138658;-70
2022/03/01 08:30:09;;;;;;;25.00;11.60;;;;;;;-0.31;71.70;100157.84;106047;1277;22548;-70
2022/03/01 08:32:35;;;;;;;22.00;10.20;;;;;;;-0.25;71.69;100154.10;105979;1277;138008;-70
2022/03/01 08:35:02;;;;;;;18.50;10.40;;;;;;;-0.21;71.24;100152.80;105908;1277;22599;-70
2022/03/01 08:37:29;;;;;;;16.00;7.50;;;;;;;-0.15;71.26;100146.27;106398;1277;22566;-70
2022/03/01 08:39:55;;;;;;;22.90;10.20;;;;;;;-0.10;70.54;100145.10;106209;1277;137971;-71
2022/03/01 08:42:22;;;;;;;19.80;8.80;;;;;;;-0.03;70.91;100140.59;105932;1277;23831;-70
2022/03/01 08:44:48;;;;;;;19.00;9.10;;;;;;;0.07;70.56;100142.90;105779;1277;138645;-70
2022/03/01 08:47:14;;;;;;;18.90;8.70;;;;;;;0.18;70.27;100142.80;106006;1277;22592;-70
2022/03/01 08:49:41;;;;;;;19.20;8.90;;;;;;;0.28;69.35;100143.70;105884;1277;25432;-70
2022/03/01 08:52:07;;;;;;;22.30;9.90;;;;;;;0.37;69.40;100140.98;105987;1277;139755;-70
2022/03/01 08:54:33;;;;;;;18.10;8.90;;;;;;;0.48;69.65;100141.96;106203;1275;22551;-71
2022/03/01 08:56:59;;;;;;;14.10;6.90;;;;;;;0.59;69.32;100142.72;105890;1277;138055;-71
2022/03/01 08:59:26;;;;;;;14.40;7.40;;;;;;;0.72;69.06;100140.33;106143;1277;24224;-72
2022/03/01 09:01:52;;;;;;;8.10;4.70;;;;;;;0.84;68.39;100141.89;105659;1280;327866;-71
2022/03/01 09:04:18;;;;;;;11.90;4.90;;;;;;;0.91;66.18;100136.21;105917;1277;138414;-71
2022/03/01 09:06:44;;;;;;;8.00;4.50;;;;;;;0.95;65.53;100132.66;105926;1277;25377;-70
2022/03/01 09:09:11;;;;;;;5.60;3.20;;;;;;;1.00;65.18;100134.33;105828;1277;137916;-71
2022/03/01 09:11:37;;;;;;;5.50;3.30;;;;;;;1.07;64.27;100132.99;105935;1277;25360;-72
2022/03/01 09:14:03;;;;;;;7.50;3.40;;;;;;;1.13;63.86;100130.12;106233;1277;137407;-69
2022/03/01 09:16:30;;;;;;;4.80;2.70;;;;;;;1.18;62.98;100129.52;105794;1278;24313;-72
2022/03/01 09:18:56;;;;;;;11.90;5.20;;;;;;;1.20;63.54;100125.89;106030;1277;23386;-71
2022/03/01 09:21:22;;;;;;;7.80;3.90;;;;;;;1.28;64.44;100122.80;106072;1277;137566;-69
2022/03/01 09:23:49;;;;;;;8.50;4.20;;;;;;;1.38;63.57;100117.05;106357;1277;22553;-70
2022/03/01 09:26:16;;;;;;;6.50;3.30;;;;;;;1.46;62.73;100113.75;106479;1277;137923;-70
2022/03/01 09:28:42;;;;;;;8.40;5.00;;;;;;;1.53;62.41;100107.97;106145;1277;25471;-71
2022/03/01 09:31:10;;;;;;;8.50;4.20;;;;;;;1.59;61.81;100108.77;106071;1277;22814;-70
2022/03/01 09:33:42;;;;;;;7.50;4.10;;;;;;;1.65;61.83;100105.36;107125;1277;138069;-70
2022/03/01 09:36:10;;;;;;;12.70;5.90;;;;;;;1.71;61.86;100098.69;106508;1277;22557;-70
2022/03/01 09:38:38;;;;;;;;;;;;;;;1.78;61.58;100090.86;106652;1275;137970;-70
2022/03/01 09:41:05;;;;;;;11.00;4.80;;;;;;;1.85;61.95;100095.08;106837;1277;23033;-70
2022/03/01 09:43:36;;;;;;;9.50;5.30;;;;;;;1.92;61.33;100091.11;107286;1277;22701;-70
2022/03/01 09:46:03;;;;;;;12.50;6.10;;;;;;;1.99;61.47;100091.52;107214;1277;137351;-70
2022/03/01 09:48:30;;;;;;;7.40;3.80;;;;;;;2.08;61.05;100091.16;106734;1276;22554;-72
2022/03/01 09:51:00;;;;;;;6.60;3.30;;;;;;;2.14;60.04;100084.73;106533;1277;139616;-70
2022/03/01 09:53:26;;;;;;;;;;;;;;;2.21;59.95;100082.95;107769;1277;23700;-70
2022/03/01 09:55:54;;;;;;;6.10;3.00;;;;;;;2.27;59.43;100078.34;106808;1277;24269;-70
2022/03/01 09:58:21;;;;;;;9.30;3.10;;;;;;;2.34;58.52;100080.73;106739;1277;137285;-70
2022/03/01 10:01:16;;;;;;;6.10;3.10;;;;;;;2.41;57.28;100080.98;106272;1277;23300;-72
2022/03/01 10:03:48;;;;;;;5.00;3.30;;;;;;;2.44;55.96;100068.14;106952;1277;137430;-71
2022/03/01 10:06:17;;;;;;;4.80;2.80;;;;;;;2.47;56.61;100067.64;106194;1277;22695;-70
2022/03/01 10:08:44;;;;;;;4.50;3.00;;;;;;;2.53;55.72;100067.29;106818;1277;137838;-71
2022/03/01 10:11:11;;;;;;;5.70;3.20;;;;;;;2.54;54.94;100069.11;106473;1277;22615;-70
2022/03/01 10:13:39;;;;;;;6.50;3.30;;;;;;;2.57;54.42;100070.55;106678;1277;22557;-70
2022/03/01 10:16:13;;;;;;;5.10;2.50;;;;;;;2.62;54.41;100069.02;106096;1277;137439;-70
2022/03/01 10:18:49;;;;;;;4.90;2.70;;;;;;;2.67;54.41;100071.05;106375;1277;22607;-70
2022/03/01 10:21:18;;;;;;;4.60;2.80;;;;;;;2.72;53.72;100067.64;106414;1277;137453;-71
2022/03/01 10:23:50;;;;;;;6.10;3.30;;;;;;;2.77;53.56;100063.23;106883;1277;22567;-70
2022/03/01 10:26:39;;;;;;;6.40;3.00;;;;;;;2.83;53.75;100058.63;106382;1277;137515;-71
2022/03/01 10:29:06;;;;;;;7.20;3.20;;;;;;;2.91;53.25;100057.56;106259;1277;24271;-70
2022/03/01 10:31:34;;;;;;;5.00;2.90;;;;;;;2.95;53.37;100056.53;106106;1277;22578;-70
2022/03/01 10:34:11;;;;;;;5.20;3.10;;;;;;;3.03;53.65;100058.80;106532;1277;137518;-70
2022/03/01 10:36:49;;;;;;;6.00;2.80;;;;;;;3.08;52.72;100058.61;105906;1277;25330;-71
2022/03/01 10:39:21;;;;;;;6.70;2.80;;;;;;;3.16;52.19;100056.91;105902;1277;137899;-71
2022/03/01 10:41:50;;;;;;;6.80;3.20;;;;;;;3.21;51.65;100054.09;106199;1277;22813;-70
2022/03/01 10:44:22;;;;;;;7.30;3.60;;;;;;;3.25;51.31;100046.75;106045;1277;137436;-70
2022/03/01 10:46:53;;;;;;;6.20;3.80;;;;;;;3.26;51.18;100042.48;106037;1277;22550;-70
2022/03/01 10:49:24;;;;;;;5.00;3.10;;;;;;;3.31;51.46;100041.30;105974;1277;22550;-69
2022/03/01 10:51:54;;;;;;;8.00;3.40;;;;;;;3.35;51.03;100031.08;106126;1277;137479;-70
2022/03/01 10:54:35;;;;;;;7.60;4.10;;;;;;;3.36;50.52;100026.69;106354;1277;25606;-69
2022/03/01 10:57:07;;;;;;;7.00;3.30;;;;;;;3.38;50.66;100023.09;106017;1277;137435;-69
2022/03/01 10:59:36;;;;;;;7.40;3.90;;;;;;;3.40;51.31;100021.36;106119;1277;22784;-69
2022/03/01 11:02:05;;;;;;;7.30;4.50;;;;;;;3.46;51.31;100016.71;106028;1277;22541;-69
2022/03/01 11:04:31;;;;;;;7.40;4.10;;;;;;;3.49;51.17;100010.13;105874;1280;137746;-70
2022/03/01 11:07:02;;;;;;;8.60;4.20;;;;;;;3.47;50.67;100002.41;106171;1277;22643;-70